createdAt,value
2017-12-10T00:00:07.155Z,999.56
2017-12-10T00:01:07.122Z,999.50
2017-12-10T00:02:12.072Z,999.56
2017-12-10T00:03:07.117Z,999.56
2017-12-10T00:04:08.200Z,999.49
2017-12-10T00:05:07.136Z,999.51
2017-12-10T00:06:07.189Z,999.46
2017-12-10T00:07:07.136Z,999.40
2017-12-10T00:08:08.238Z,999.36
2017-12-10T00:09:07.158Z,999.42
2017-12-10T00:10:09.268Z,999.35
2017-12-10T00:11:07.146Z,999.40
2017-12-10T00:12:08.292Z,999.27
2017-12-10T00:13:07.152Z,999.30
2017-12-10T00:14:09.189Z,999.24
2017-12-10T00:15:07.169Z,999.24
2017-12-10T00:16:08.290Z,999.28
2017-12-10T00:17:07.170Z,999.19
2017-12-10T00:18:18.130Z,999.20
2017-12-10T00:19:07.178Z,999.12
2017-12-10T00:20:08.215Z,999.13
2017-12-10T00:21:07.191Z,999.13
2017-12-10T00:22:13.040Z,999.14
2017-12-10T00:23:07.204Z,999.06
2017-12-10T00:24:07.219Z,999.02
2017-12-10T00:25:07.198Z,999.01
2017-12-10T00:26:07.216Z,998.99
2017-12-10T00:27:07.213Z,998.94
2017-12-10T00:28:08.258Z,998.93
2017-12-10T00:29:07.225Z,998.88
2017-12-10T00:30:07.329Z,998.86
2017-12-10T00:31:07.208Z,998.81
2017-12-10T00:32:08.252Z,998.79
2017-12-10T00:33:07.219Z,998.80
2017-12-10T00:34:08.279Z,998.75
2017-12-10T00:35:07.226Z,998.72
2017-12-10T00:36:12.078Z,998.72
2017-12-10T00:37:07.237Z,998.70
2017-12-10T00:38:12.082Z,998.68
2017-12-10T00:39:07.292Z,998.69
2017-12-10T00:40:07.281Z,998.61
2017-12-10T00:41:07.242Z,998.62
2017-12-10T00:42:08.316Z,998.55
2017-12-10T00:43:07.255Z,998.52
2017-12-10T00:44:14.073Z,998.56
2017-12-10T00:45:07.260Z,998.45
2017-12-10T00:46:14.097Z,998.47
2017-12-10T00:47:07.276Z,998.50
2017-12-10T00:48:09.387Z,998.43
2017-12-10T00:49:07.274Z,998.40
2017-12-10T00:50:09.288Z,998.38
2017-12-10T00:51:07.275Z,998.38
2017-12-10T00:52:07.356Z,998.30
2017-12-10T00:53:07.291Z,998.33
2017-12-10T00:54:07.371Z,998.32
2017-12-10T00:55:07.301Z,998.32
2017-12-10T00:56:07.404Z,998.24
2017-12-10T00:57:07.301Z,998.30
2017-12-10T00:58:08.328Z,998.21
2017-12-10T00:59:07.312Z,998.21
2017-12-10T01:00:07.413Z,998.21
2017-12-10T01:01:07.308Z,998.24
2017-12-10T01:02:07.431Z,998.16
2017-12-10T01:03:07.313Z,998.17
2017-12-10T01:04:09.391Z,998.13
2017-12-10T01:05:07.327Z,998.15
2017-12-10T01:06:13.089Z,998.13
2017-12-10T01:07:07.334Z,998.12
2017-12-10T01:08:08.395Z,998.05
2017-12-10T01:09:07.332Z,998.08
2017-12-10T01:10:12.090Z,997.99
2017-12-10T01:11:07.342Z,997.99
2017-12-10T01:12:08.434Z,998.06
2017-12-10T01:13:07.382Z,997.97
2017-12-10T01:14:07.413Z,997.98
2017-12-10T01:15:07.357Z,998.02
2017-12-10T01:16:07.420Z,998.00
2017-12-10T01:17:07.371Z,997.96
2017-12-10T01:18:08.460Z,997.95
2017-12-10T01:19:07.364Z,998.01
2017-12-10T01:20:08.470Z,997.94
2017-12-10T01:21:07.372Z,997.92
2017-12-10T01:22:07.476Z,997.89
2017-12-10T01:23:07.381Z,997.97
2017-12-10T01:24:07.477Z,997.92
2017-12-10T01:25:07.388Z,997.94
2017-12-10T01:26:07.490Z,997.97
2017-12-10T01:27:07.394Z,997.95
2017-12-10T01:28:12.108Z,997.86
2017-12-10T01:29:07.403Z,997.92
2017-12-10T01:30:20.111Z,997.84
2017-12-10T01:31:07.416Z,997.81
2017-12-10T01:32:09.480Z,997.93
2017-12-10T01:33:07.427Z,997.90
2017-12-10T01:34:07.443Z,997.83
2017-12-10T01:35:07.424Z,997.88
2017-12-10T01:36:09.507Z,997.86
2017-12-10T01:37:07.425Z,997.86
2017-12-10T01:38:07.470Z,997.83
2017-12-10T01:39:07.441Z,997.81
2017-12-10T01:40:08.503Z,997.87
2017-12-10T01:41:07.456Z,997.79
2017-12-10T01:42:07.491Z,997.81
2017-12-10T01:43:07.446Z,997.75
2017-12-10T01:44:09.556Z,997.73
2017-12-10T01:45:07.467Z,997.77
2017-12-10T01:46:07.520Z,997.72
2017-12-10T01:47:07.463Z,997.75
2017-12-10T01:48:07.530Z,997.64
2017-12-10T01:49:07.477Z,997.60
2017-12-10T01:50:08.574Z,997.58
2017-12-10T01:51:07.471Z,997.62
2017-12-10T01:52:07.556Z,997.59
2017-12-10T01:53:07.471Z,997.50
2017-12-10T01:54:07.572Z,997.45
2017-12-10T01:55:07.481Z,997.45
2017-12-10T01:56:08.510Z,997.47
2017-12-10T01:57:07.484Z,997.44
2017-12-10T01:58:07.604Z,997.45
2017-12-10T01:59:07.511Z,997.43
2017-12-10T02:00:12.125Z,997.46
2017-12-10T02:01:07.510Z,997.41
2017-12-10T02:02:08.548Z,997.39
2017-12-10T02:03:08.284Z,997.43
2017-12-10T02:04:14.093Z,997.28
2017-12-10T02:05:07.512Z,997.28
2017-12-10T02:06:07.563Z,997.29
2017-12-10T02:07:07.518Z,997.24
2017-12-10T02:08:08.594Z,997.21
2017-12-10T02:09:07.541Z,997.24
2017-12-10T02:10:08.612Z,997.16
2017-12-10T02:11:07.537Z,997.18
2017-12-10T02:12:09.643Z,997.15
2017-12-10T02:13:07.535Z,997.17
2017-12-10T02:14:07.646Z,997.11
2017-12-10T02:15:07.548Z,997.06
2017-12-10T02:16:07.623Z,997.02
2017-12-10T02:17:07.556Z,997.00
2017-12-10T02:18:13.574Z,996.92
2017-12-10T02:19:07.577Z,996.93
2017-12-10T02:20:07.647Z,996.88
2017-12-10T02:21:07.558Z,996.83
2017-12-10T02:22:09.609Z,996.90
2017-12-10T02:23:07.570Z,996.87
2017-12-10T02:24:07.681Z,996.85
2017-12-10T02:25:07.586Z,996.91
2017-12-10T02:26:08.616Z,996.86
2017-12-10T02:27:07.584Z,996.80
2017-12-10T02:28:07.710Z,996.80
2017-12-10T02:29:07.590Z,996.76
2017-12-10T02:30:07.620Z,996.69
2017-12-10T02:31:07.599Z,996.68
2017-12-10T02:32:09.688Z,996.70
2017-12-10T02:33:07.608Z,996.64
2017-12-10T02:34:07.642Z,996.63
2017-12-10T02:35:07.610Z,996.65
2017-12-10T02:36:13.599Z,996.61
2017-12-10T02:37:07.621Z,996.59
2017-12-10T02:38:07.674Z,996.57
2017-12-10T02:39:07.616Z,996.56
2017-12-10T02:40:07.691Z,996.52
2017-12-10T02:41:07.630Z,996.53
2017-12-10T02:42:07.715Z,996.46
2017-12-10T02:43:07.640Z,996.39
2017-12-10T02:44:09.664Z,996.37
2017-12-10T02:45:07.651Z,996.34
2017-12-10T02:46:12.645Z,996.34
2017-12-10T02:47:07.675Z,996.32
2017-12-10T02:48:07.755Z,996.28
2017-12-10T02:49:07.649Z,996.23
2017-12-10T02:50:12.569Z,996.22
2017-12-10T02:51:07.664Z,996.15
2017-12-10T02:52:07.834Z,996.12
2017-12-10T02:53:07.678Z,996.13
2017-12-10T02:54:09.731Z,996.18
2017-12-10T02:55:07.675Z,996.15
2017-12-10T02:56:07.696Z,996.11
2017-12-10T02:57:07.681Z,996.15
2017-12-10T02:58:07.701Z,996.09
2017-12-10T02:59:07.687Z,996.07
2017-12-10T03:00:09.781Z,996.07
2017-12-10T03:01:07.690Z,996.05
2017-12-10T03:02:07.734Z,996.07
2017-12-10T03:03:07.695Z,996.03
2017-12-10T03:04:08.771Z,995.99
2017-12-10T03:05:07.767Z,995.90
2017-12-10T03:06:08.787Z,995.95
2017-12-10T03:07:07.711Z,995.84
2017-12-10T03:08:07.774Z,995.86
2017-12-10T03:09:07.714Z,995.80
2017-12-10T03:10:08.812Z,995.73
2017-12-10T03:11:07.725Z,995.76
2017-12-10T03:12:07.802Z,995.71
2017-12-10T03:13:07.723Z,995.71
2017-12-10T03:14:18.576Z,995.66
2017-12-10T03:15:07.731Z,995.67
2017-12-10T03:16:08.864Z,995.72
2017-12-10T03:17:07.742Z,995.72
2017-12-10T03:18:07.845Z,995.63
2017-12-10T03:19:07.743Z,995.54
2017-12-10T03:20:12.572Z,995.59
2017-12-10T03:21:07.754Z,995.56
2017-12-10T03:22:07.887Z,995.46
2017-12-10T03:23:07.759Z,995.49
2017-12-10T03:24:09.834Z,995.49
2017-12-10T03:25:07.764Z,995.50
2017-12-10T03:26:09.849Z,995.49
2017-12-10T03:27:07.783Z,995.44
2017-12-10T03:28:08.839Z,995.42
2017-12-10T03:29:07.778Z,995.34
2017-12-10T03:30:07.828Z,995.32
2017-12-10T03:31:07.790Z,995.30
2017-12-10T03:32:08.862Z,995.28
2017-12-10T03:33:07.790Z,995.15
2017-12-10T03:34:07.853Z,995.11
2017-12-10T03:35:07.786Z,995.11
2017-12-10T03:36:07.876Z,995.10
2017-12-10T03:37:07.805Z,995.03
2017-12-10T03:38:07.881Z,995.01
2017-12-10T03:39:07.810Z,995.07
2017-12-10T03:40:07.901Z,995.05
2017-12-10T03:41:07.820Z,994.96
2017-12-10T03:42:07.909Z,995.00
2017-12-10T03:43:07.819Z,994.99
2017-12-10T03:44:08.944Z,994.94
2017-12-10T03:45:07.827Z,994.90
2017-12-10T03:46:08.864Z,994.88
2017-12-10T03:47:07.841Z,994.78
2017-12-10T03:48:08.872Z,994.78
2017-12-10T03:49:07.846Z,994.72
2017-12-10T03:50:07.961Z,994.67
2017-12-10T03:51:07.862Z,994.61
2017-12-10T03:52:07.884Z,994.58
2017-12-10T03:53:07.848Z,994.65
2017-12-10T03:54:07.892Z,994.59
2017-12-10T03:55:07.860Z,994.60
2017-12-10T03:56:07.900Z,994.57
2017-12-10T03:57:07.862Z,994.61
2017-12-10T03:58:08.937Z,994.57
2017-12-10T03:59:07.881Z,994.56
2017-12-10T04:00:07.928Z,994.53
2017-12-10T04:01:07.877Z,994.58
2017-12-10T04:02:07.940Z,994.48
2017-12-10T04:03:07.890Z,994.54
2017-12-10T04:04:07.954Z,994.41
2017-12-10T04:05:07.890Z,994.37
2017-12-10T04:06:08.993Z,994.31
2017-12-10T04:07:07.889Z,994.26
2017-12-10T04:08:07.984Z,994.36
2017-12-10T04:09:07.904Z,994.38
2017-12-10T04:10:07.996Z,994.25
2017-12-10T04:11:07.910Z,994.29
2017-12-10T04:12:08.932Z,994.31
2017-12-10T04:13:07.919Z,994.31
2017-12-10T04:14:08.020Z,994.27
2017-12-10T04:15:07.928Z,994.26
2017-12-10T04:16:08.956Z,994.25
2017-12-10T04:17:07.934Z,994.20
2017-12-10T04:18:08.046Z,994.19
2017-12-10T04:19:07.931Z,994.15
2017-12-10T04:20:10.005Z,994.18
2017-12-10T04:21:07.944Z,994.21
2017-12-10T04:22:10.030Z,994.13
2017-12-10T04:23:07.946Z,994.14
2017-12-10T04:24:07.990Z,994.06
2017-12-10T04:25:07.950Z,994.06
2017-12-10T04:26:09.021Z,994.05
2017-12-10T04:27:07.961Z,994.03
2017-12-10T04:28:13.640Z,994.03
2017-12-10T04:29:07.967Z,993.96
2017-12-10T04:30:08.028Z,994.00
2017-12-10T04:31:07.975Z,993.92
2017-12-10T04:32:08.038Z,993.89
2017-12-10T04:33:07.979Z,993.93
2017-12-10T04:34:08.049Z,993.89
2017-12-10T04:35:07.982Z,993.90
2017-12-10T04:36:08.068Z,993.96
2017-12-10T04:37:07.998Z,993.88
2017-12-10T04:38:09.100Z,993.84
2017-12-10T04:39:07.996Z,993.78
2017-12-10T04:40:09.118Z,993.74
2017-12-10T04:41:07.995Z,993.74
2017-12-10T04:42:09.030Z,993.67
2017-12-10T04:43:08.011Z,993.64
2017-12-10T04:44:08.114Z,993.59
2017-12-10T04:45:08.016Z,993.62
2017-12-10T04:46:12.640Z,993.61
2017-12-10T04:47:08.024Z,993.55
2017-12-10T04:48:08.045Z,993.49
2017-12-10T04:49:08.028Z,993.54
2017-12-10T04:50:09.083Z,993.49
2017-12-10T04:51:08.033Z,993.44
2017-12-10T04:52:08.065Z,993.42
2017-12-10T04:53:08.042Z,993.38
2017-12-10T04:54:10.129Z,993.39
2017-12-10T04:55:08.049Z,993.36
2017-12-10T04:56:08.100Z,993.28
2017-12-10T04:57:08.087Z,993.28
2017-12-10T04:58:08.118Z,993.27
2017-12-10T04:59:08.052Z,993.18
2017-12-10T05:00:08.121Z,993.20
2017-12-10T05:01:08.057Z,993.15
2017-12-10T05:02:09.158Z,993.15
2017-12-10T05:03:08.064Z,993.13
2017-12-10T05:04:14.091Z,993.13
2017-12-10T05:05:08.078Z,993.09
2017-12-10T05:06:09.190Z,993.03
2017-12-10T05:07:08.087Z,993.06
2017-12-10T05:08:10.121Z,993.09
2017-12-10T05:09:08.083Z,993.04
2017-12-10T05:10:08.193Z,992.98
2017-12-10T05:11:08.200Z,992.95
2017-12-10T05:12:08.092Z,992.91
2017-12-10T05:13:08.214Z,992.83
2017-12-10T05:14:08.142Z,992.87
2017-12-10T05:15:08.107Z,992.87
2017-12-10T05:16:10.180Z,992.77
2017-12-10T05:17:08.103Z,992.71
2017-12-10T05:18:10.193Z,992.73
2017-12-10T05:19:08.119Z,992.64
2017-12-10T05:20:13.074Z,992.63
2017-12-10T05:21:08.126Z,992.60
2017-12-10T05:22:15.135Z,992.55
2017-12-10T05:23:08.131Z,992.57
2017-12-10T05:24:08.188Z,992.50
2017-12-10T05:25:08.131Z,992.46
2017-12-10T05:26:13.108Z,992.47
2017-12-10T05:27:08.153Z,992.44
2017-12-10T05:28:13.135Z,992.45
2017-12-10T05:29:08.152Z,992.42
2017-12-10T05:30:32.089Z,992.35
2017-12-10T05:31:08.152Z,992.30
2017-12-10T05:32:10.207Z,992.30
2017-12-10T05:33:08.164Z,992.22
2017-12-10T05:34:08.259Z,992.24
2017-12-10T05:35:08.199Z,992.19
2017-12-10T05:36:14.108Z,992.10
2017-12-10T05:37:08.179Z,992.05
2017-12-10T05:38:29.287Z,992.03
2017-12-10T05:39:08.190Z,992.01
2017-12-10T05:40:08.302Z,991.96
2017-12-10T05:41:08.187Z,991.93
2017-12-10T05:42:08.209Z,991.86
2017-12-10T05:43:08.196Z,991.81
2017-12-10T05:44:09.246Z,991.84
2017-12-10T05:45:08.201Z,991.76
2017-12-10T05:46:10.281Z,991.72
2017-12-10T05:47:08.205Z,991.73
2017-12-10T05:48:15.110Z,991.66
2017-12-10T05:49:08.206Z,991.66
2017-12-10T05:50:08.262Z,991.65
2017-12-10T05:51:08.216Z,991.62
2017-12-10T05:52:21.078Z,991.51
2017-12-10T05:53:08.230Z,991.54
2017-12-10T05:54:08.286Z,991.48
2017-12-10T05:55:08.228Z,991.41
2017-12-10T05:56:24.079Z,991.37
2017-12-10T05:57:08.237Z,991.36
2017-12-10T05:58:08.309Z,991.33
2017-12-10T05:59:08.237Z,991.28
2017-12-10T06:00:13.139Z,991.23
2017-12-10T06:01:08.251Z,991.19
2017-12-10T06:02:09.261Z,991.18
2017-12-10T06:03:08.247Z,991.10
2017-12-10T06:04:09.286Z,991.02
2017-12-10T06:05:08.258Z,991.07
2017-12-10T06:06:09.311Z,991.04
2017-12-10T06:07:08.282Z,991.07
2017-12-10T06:08:08.380Z,991.00
2017-12-10T06:09:08.279Z,990.97
2017-12-10T06:10:09.370Z,990.90
2017-12-10T06:11:08.278Z,990.90
2017-12-10T06:12:08.315Z,990.88
2017-12-10T06:13:08.288Z,990.85
2017-12-10T06:14:08.317Z,990.86
2017-12-10T06:15:08.290Z,990.86
2017-12-10T06:16:08.331Z,990.86
2017-12-10T06:17:08.300Z,990.81
2017-12-10T06:18:09.369Z,990.80
2017-12-10T06:19:08.304Z,990.75
2017-12-10T06:20:10.423Z,990.71
2017-12-10T06:21:08.312Z,990.65
2017-12-10T06:22:08.378Z,990.65
2017-12-10T06:23:08.313Z,990.62
2017-12-10T06:24:10.342Z,990.59
2017-12-10T06:25:08.312Z,990.56
2017-12-10T06:26:20.101Z,990.54
2017-12-10T06:27:08.326Z,990.52
2017-12-10T06:28:13.124Z,990.46
2017-12-10T06:29:08.331Z,990.43
2017-12-10T06:30:10.372Z,990.48
2017-12-10T06:31:08.338Z,990.44
2017-12-10T06:32:09.369Z,990.43
2017-12-10T06:33:08.350Z,990.39
2017-12-10T06:34:10.404Z,990.33
2017-12-10T06:35:08.423Z,990.33
2017-12-10T06:36:15.131Z,990.23
2017-12-10T06:37:08.361Z,990.23
2017-12-10T06:38:15.151Z,990.13
2017-12-10T06:39:08.377Z,990.09
2017-12-10T06:40:08.397Z,990.11
2017-12-10T06:41:08.404Z,990.11
2017-12-10T06:42:08.409Z,990.04
2017-12-10T06:43:08.374Z,990.01
2017-12-10T06:44:09.456Z,989.98
2017-12-10T06:45:08.380Z,989.99
2017-12-10T06:46:09.459Z,989.93
2017-12-10T06:47:08.395Z,989.89
2017-12-10T06:48:09.473Z,989.85
2017-12-10T06:49:08.391Z,989.88
2017-12-10T06:50:08.464Z,989.82
2017-12-10T06:51:08.414Z,989.80
2017-12-10T06:52:10.423Z,989.74
2017-12-10T06:53:08.405Z,989.69
2017-12-10T06:54:09.519Z,989.71
2017-12-10T06:55:08.417Z,989.66
2017-12-10T06:56:13.116Z,989.63
2017-12-10T06:57:08.417Z,989.59
2017-12-10T06:58:09.441Z,989.56
2017-12-10T06:59:08.425Z,989.55
2017-12-10T07:00:24.102Z,989.54
2017-12-10T07:01:08.433Z,989.56
2017-12-10T07:02:08.543Z,989.52
2017-12-10T07:03:08.450Z,989.52
2017-12-10T07:04:08.463Z,989.49
2017-12-10T07:05:08.444Z,989.49
2017-12-10T07:06:15.128Z,989.48
2017-12-10T07:07:08.461Z,989.49
2017-12-10T07:08:14.135Z,989.47
2017-12-10T07:09:08.450Z,989.40
2017-12-10T07:10:09.519Z,989.36
2017-12-10T07:11:08.460Z,989.36
2017-12-10T07:12:08.507Z,989.36
2017-12-10T07:13:08.462Z,989.31
2017-12-10T07:14:09.544Z,989.29
2017-12-10T07:15:08.470Z,989.26
2017-12-10T07:16:21.131Z,989.20
2017-12-10T07:17:08.478Z,989.19
2017-12-10T07:18:15.105Z,989.17
2017-12-10T07:19:08.487Z,989.08
2017-12-10T07:20:23.101Z,989.08
2017-12-10T07:21:08.488Z,989.05
2017-12-10T07:22:09.598Z,989.00
2017-12-10T07:23:08.495Z,988.99
2017-12-10T07:24:10.543Z,988.91
2017-12-10T07:25:08.511Z,988.90
2017-12-10T07:26:14.130Z,988.83
2017-12-10T07:27:08.507Z,988.78
2017-12-10T07:28:14.142Z,988.72
2017-12-10T07:29:08.518Z,988.68
2017-12-10T07:30:10.577Z,988.68
2017-12-10T07:31:08.517Z,988.68
2017-12-10T07:32:10.592Z,988.64
2017-12-10T07:33:08.521Z,988.63
2017-12-10T07:34:14.168Z,988.61
2017-12-10T07:35:08.531Z,988.49
2017-12-10T07:36:10.620Z,988.48
2017-12-10T07:37:08.543Z,988.46
2017-12-10T07:38:14.110Z,988.47
2017-12-10T07:39:08.544Z,988.39
2017-12-10T07:40:08.598Z,988.35
2017-12-10T07:41:08.548Z,988.37
2017-12-10T07:42:08.633Z,988.24
2017-12-10T07:43:08.561Z,988.26
2017-12-10T07:44:08.628Z,988.17
2017-12-10T07:45:08.555Z,988.17
2017-12-10T07:46:09.657Z,988.16
2017-12-10T07:47:08.572Z,988.08
2017-12-10T07:48:13.171Z,988.09
2017-12-10T07:49:08.583Z,987.99
2017-12-10T07:50:09.693Z,987.95
2017-12-10T07:51:08.583Z,987.90
2017-12-10T07:52:14.623Z,987.84
2017-12-10T07:53:08.592Z,987.79
2017-12-10T07:54:09.625Z,987.83
2017-12-10T07:55:08.588Z,987.74
2017-12-10T07:56:10.656Z,987.79
2017-12-10T07:57:08.597Z,987.70
2017-12-10T07:58:08.623Z,987.71
2017-12-10T07:59:08.627Z,987.70
2017-12-10T08:00:08.638Z,987.71
2017-12-10T08:01:08.602Z,987.64
2017-12-10T08:02:15.614Z,987.62
2017-12-10T08:03:08.612Z,987.54
2017-12-10T08:04:08.665Z,987.46
2017-12-10T08:05:08.621Z,987.41
2017-12-10T08:06:08.669Z,987.34
2017-12-10T08:07:08.640Z,987.28
2017-12-10T08:08:13.609Z,987.25
2017-12-10T08:09:08.627Z,987.28
2017-12-10T08:10:14.638Z,987.33
2017-12-10T08:11:08.639Z,987.26
2017-12-10T08:12:09.739Z,987.31
2017-12-10T08:13:08.645Z,987.26
2017-12-10T08:14:08.731Z,987.20
2017-12-10T08:15:08.655Z,987.11
2017-12-10T08:16:13.652Z,987.15
2017-12-10T08:17:08.665Z,987.09
2017-12-10T08:18:10.704Z,987.07
2017-12-10T08:19:08.684Z,987.09
2017-12-10T08:20:08.768Z,987.02
2017-12-10T08:21:08.672Z,986.94
2017-12-10T08:22:08.776Z,986.93
2017-12-10T08:23:08.681Z,986.85
2017-12-10T08:24:08.694Z,986.83
2017-12-10T08:25:08.679Z,986.83
2017-12-10T08:26:08.698Z,986.74
2017-12-10T08:27:08.679Z,986.79
2017-12-10T08:28:08.745Z,986.74
2017-12-10T08:29:08.690Z,986.68
2017-12-10T08:30:08.742Z,986.72
2017-12-10T08:31:08.721Z,986.61
2017-12-10T08:32:09.785Z,986.57
2017-12-10T08:33:08.708Z,986.50
2017-12-10T08:34:08.765Z,986.49
2017-12-10T08:35:08.715Z,986.46
2017-12-10T08:36:08.777Z,986.44
2017-12-10T08:37:08.726Z,986.40
2017-12-10T08:38:08.798Z,986.32
2017-12-10T08:39:08.742Z,986.30
2017-12-10T08:40:08.804Z,986.24
2017-12-10T08:41:08.727Z,986.19
2017-12-10T08:42:08.819Z,986.20
2017-12-10T08:43:08.737Z,986.10
2017-12-10T08:44:09.865Z,986.02
2017-12-10T08:45:08.755Z,985.95
2017-12-10T08:46:10.791Z,985.99
2017-12-10T08:47:08.748Z,985.92
2017-12-10T08:48:09.776Z,985.83
2017-12-10T08:49:08.747Z,985.78
2017-12-10T08:50:08.869Z,985.69
2017-12-10T08:51:08.764Z,985.66
2017-12-10T08:52:08.781Z,985.67
2017-12-10T08:53:08.760Z,985.62
2017-12-10T08:54:10.849Z,985.52
2017-12-10T08:55:08.768Z,985.51
2017-12-10T08:56:08.805Z,985.55
2017-12-10T08:57:08.780Z,985.53
2017-12-10T08:58:08.820Z,985.42
2017-12-10T08:59:08.781Z,985.42
2017-12-10T09:00:08.840Z,985.40
2017-12-10T09:01:08.787Z,985.35
2017-12-10T09:02:10.897Z,985.27
2017-12-10T09:03:08.798Z,985.20
2017-12-10T09:04:09.884Z,985.07
2017-12-10T09:05:08.801Z,984.94
2017-12-10T09:06:08.810Z,984.92
2017-12-10T09:07:08.804Z,984.94
2017-12-10T09:08:08.805Z,985.00
2017-12-10T09:09:08.895Z,984.90
2017-12-10T09:10:08.815Z,984.84
2017-12-10T09:11:08.910Z,984.78
2017-12-10T09:12:08.818Z,984.69
2017-12-10T09:13:08.916Z,984.59
2017-12-10T09:14:08.833Z,984.51
2017-12-10T09:15:09.854Z,984.46
2017-12-10T09:16:08.840Z,984.42
2017-12-10T09:17:08.956Z,984.41
2017-12-10T09:18:08.835Z,984.32
2017-12-10T09:19:08.871Z,984.29
2017-12-10T09:20:08.850Z,984.30
2017-12-10T09:21:09.896Z,984.23
2017-12-10T09:22:08.846Z,984.21
2017-12-10T09:23:09.917Z,984.18
2017-12-10T09:24:10.743Z,984.15
2017-12-10T09:25:08.895Z,984.09
2017-12-10T09:26:08.859Z,984.10
2017-12-10T09:27:13.624Z,983.99
2017-12-10T09:28:08.866Z,983.91
2017-12-10T09:29:08.929Z,983.83
2017-12-10T09:30:08.874Z,983.86
2017-12-10T09:31:08.942Z,983.80
2017-12-10T09:32:08.889Z,983.79
2017-12-10T09:33:09.986Z,983.77
2017-12-10T09:34:08.880Z,983.70
2017-12-10T09:35:08.970Z,983.63
2017-12-10T09:36:08.896Z,983.62
2017-12-10T09:37:09.905Z,983.58
2017-12-10T09:38:08.899Z,983.53
2017-12-10T09:39:09.000Z,983.55
2017-12-10T09:40:08.898Z,983.46
2017-12-10T09:41:09.012Z,983.42
2017-12-10T09:42:08.907Z,983.32
2017-12-10T09:43:09.016Z,983.27
2017-12-10T09:44:08.915Z,983.26
2017-12-10T09:45:08.940Z,983.25
2017-12-10T09:46:08.917Z,983.12
2017-12-10T09:47:08.950Z,983.12
2017-12-10T09:48:08.921Z,983.04
2017-12-10T09:49:13.676Z,982.95
2017-12-10T09:50:08.928Z,982.94
2017-12-10T09:51:11.023Z,982.87
2017-12-10T09:52:08.940Z,982.85
2017-12-10T09:53:10.014Z,982.82
2017-12-10T09:54:08.941Z,982.82
2017-12-10T09:55:08.998Z,982.78
2017-12-10T09:56:08.946Z,982.79
2017-12-10T09:57:09.018Z,982.77
2017-12-10T09:58:08.956Z,982.77
2017-12-10T09:59:09.033Z,982.69
2017-12-10T10:00:08.966Z,982.59
2017-12-10T10:01:09.079Z,982.49
2017-12-10T10:02:08.963Z,982.41
2017-12-10T10:03:09.061Z,982.38
2017-12-10T10:04:08.964Z,982.29
2017-12-10T10:05:09.013Z,982.24
2017-12-10T10:06:08.975Z,982.16
2017-12-10T10:07:09.031Z,982.10
2017-12-10T10:08:08.985Z,982.18
2017-12-10T10:09:11.090Z,982.10
2017-12-10T10:10:08.999Z,982.09
2017-12-10T10:11:09.059Z,982.04
2017-12-10T10:12:09.005Z,982.08
2017-12-10T10:13:09.066Z,981.96
2017-12-10T10:14:08.996Z,981.84
2017-12-10T10:15:09.085Z,981.76
2017-12-10T10:16:09.006Z,981.77
2017-12-10T10:17:09.104Z,981.68
2017-12-10T10:18:09.016Z,981.66
2017-12-10T10:19:09.104Z,981.63
2017-12-10T10:20:09.142Z,981.57
2017-12-10T10:21:09.021Z,981.53
2017-12-10T10:22:09.137Z,981.45
2017-12-10T10:23:09.020Z,981.42
2017-12-10T10:24:13.664Z,981.43
2017-12-10T10:25:09.040Z,981.35
2017-12-10T10:26:09.066Z,981.35
2017-12-10T10:27:09.039Z,981.27
2017-12-10T10:28:09.067Z,981.16
2017-12-10T10:29:09.040Z,981.07
2017-12-10T10:30:10.143Z,981.02
2017-12-10T10:31:09.052Z,980.90
2017-12-10T10:32:11.171Z,980.83
2017-12-10T10:33:09.065Z,980.78
2017-12-10T10:34:09.119Z,980.75
2017-12-10T10:35:09.054Z,980.67
2017-12-10T10:36:09.147Z,980.62
2017-12-10T10:37:09.071Z,980.59
2017-12-10T10:38:09.143Z,980.52
2017-12-10T10:39:09.072Z,980.48
2017-12-10T10:40:09.149Z,980.46
2017-12-10T10:41:09.080Z,980.41
2017-12-10T10:42:09.173Z,980.37
2017-12-10T10:43:09.085Z,980.41
2017-12-10T10:44:09.186Z,980.36
2017-12-10T10:45:09.088Z,980.30
2017-12-10T10:46:09.200Z,980.22
2017-12-10T10:47:09.103Z,980.12
2017-12-10T10:48:09.207Z,980.06
2017-12-10T10:49:09.099Z,979.96
2017-12-10T10:50:09.123Z,979.92
2017-12-10T10:51:09.108Z,979.82
2017-12-10T10:52:09.132Z,979.76
2017-12-10T10:53:09.110Z,979.66
2017-12-10T10:54:09.151Z,979.63
2017-12-10T10:55:09.124Z,979.52
2017-12-10T10:56:11.159Z,979.49
2017-12-10T10:57:09.116Z,979.39
2017-12-10T10:58:09.227Z,979.33
2017-12-10T10:59:09.134Z,979.30
2017-12-10T11:00:14.162Z,979.22
2017-12-10T11:01:09.153Z,979.16
2017-12-10T11:02:14.174Z,979.11
2017-12-10T11:03:09.141Z,979.05
2017-12-10T11:04:10.196Z,979.00
2017-12-10T11:05:09.150Z,978.98
2017-12-10T11:06:10.254Z,978.91
2017-12-10T11:07:09.157Z,978.90
2017-12-10T11:08:11.191Z,978.83
2017-12-10T11:09:09.157Z,978.69
2017-12-10T11:10:09.259Z,978.57
2017-12-10T11:11:09.169Z,978.50
2017-12-10T11:12:09.278Z,978.44
2017-12-10T11:13:09.182Z,978.46
2017-12-10T11:14:09.288Z,978.31
2017-12-10T11:15:09.176Z,978.31
2017-12-10T11:16:10.220Z,978.31
2017-12-10T11:17:09.191Z,978.21
2017-12-10T11:18:09.213Z,978.22
2017-12-10T11:19:09.187Z,978.14
2017-12-10T11:20:09.226Z,978.10
2017-12-10T11:21:09.192Z,978.04
2017-12-10T11:22:10.265Z,977.96
2017-12-10T11:23:09.203Z,977.99
2017-12-10T11:24:09.256Z,977.87
2017-12-10T11:25:09.215Z,977.85
2017-12-10T11:26:10.287Z,977.86
2017-12-10T11:27:09.229Z,977.77
2017-12-10T11:28:09.281Z,977.74
2017-12-10T11:29:09.246Z,977.71
2017-12-10T11:30:10.329Z,977.76
2017-12-10T11:31:09.219Z,977.71
2017-12-10T11:32:11.258Z,977.76
2017-12-10T11:33:09.228Z,977.67
2017-12-10T11:34:09.323Z,977.65
2017-12-10T11:35:09.235Z,977.66
2017-12-10T11:36:09.342Z,977.62
2017-12-10T11:37:09.241Z,977.54
2017-12-10T11:38:11.304Z,977.58
2017-12-10T11:39:09.250Z,977.61
2017-12-10T11:40:09.378Z,977.57
2017-12-10T11:41:09.275Z,977.60
2017-12-10T11:42:09.330Z,977.52
2017-12-10T11:43:09.256Z,977.50
2017-12-10T11:44:09.346Z,977.46
2017-12-10T11:45:09.273Z,977.48
2017-12-10T11:46:09.361Z,977.37
2017-12-10T11:47:09.270Z,977.23
2017-12-10T11:48:09.384Z,977.16
2017-12-10T11:49:09.304Z,977.04
2017-12-10T11:50:09.293Z,976.98
2017-12-10T11:51:09.296Z,976.90
2017-12-10T11:52:09.307Z,976.75
2017-12-10T11:53:09.286Z,976.70
2017-12-10T11:54:09.290Z,976.65
2017-12-10T11:55:09.291Z,976.55
2017-12-10T11:56:09.325Z,976.46
2017-12-10T11:57:09.314Z,976.42
2017-12-10T11:58:09.386Z,976.32
2017-12-10T11:59:09.305Z,976.26
2017-12-10T12:00:09.360Z,976.19
2017-12-10T12:01:09.332Z,976.12
2017-12-10T12:02:09.374Z,976.09
2017-12-10T12:03:09.314Z,976.02
2017-12-10T12:04:10.411Z,976.00
2017-12-10T12:05:09.361Z,975.92
2017-12-10T12:06:09.399Z,975.95
2017-12-10T12:07:09.332Z,975.85
2017-12-10T12:08:09.322Z,975.83
2017-12-10T12:09:09.345Z,975.79
2017-12-10T12:10:09.332Z,975.80
2017-12-10T12:11:11.375Z,975.88
2017-12-10T12:12:09.341Z,975.88
2017-12-10T12:13:09.450Z,975.84
2017-12-10T12:14:09.351Z,975.82
2017-12-10T12:15:10.384Z,975.81
2017-12-10T12:16:09.350Z,975.76
2017-12-10T12:17:09.367Z,975.79
2017-12-10T12:18:09.418Z,975.80
2017-12-10T12:19:10.412Z,975.74
2017-12-10T12:20:09.360Z,975.77
2017-12-10T12:21:09.404Z,975.75
2017-12-10T12:22:09.387Z,975.74
2017-12-10T12:23:10.439Z,975.70
2017-12-10T12:24:09.400Z,975.67
2017-12-10T12:25:09.427Z,975.65
2017-12-10T12:26:09.390Z,975.59
2017-12-10T12:27:09.442Z,975.64
2017-12-10T12:28:09.394Z,975.72